Wolgastern — CQLH — position and weather

sailwx.info

Track history (hours):
 
Tides and Currents Weather Stations Pressure Air Temp Water Temp Dewpoint Dewpoint Depression Visibility Wind Speed Wind Dir Waves Ship Positions

Wolgastern

Last reported at 2017-Jan-22 08:13 UTC. Time now 2017-Jan-23 02:37 UTC.
Position N 36°10' W 005°25'.

Length 162 m; draft 6.4 m.

Type: Tanker. MMSI: 255804950.

Date/timePositionNaut miles runAvg speedWind from/ knotsBaromVisibWave heightAir tempDewpointWater temp
2017-Jan-22 08:13N 36°10' W 005°25'0 0.0
2017-Jan-22 06:26N 36°10' W 005°25'0 0.0
2017-Jan-21 21:23N 36°10' W 005°25'2 1.7
2017-Jan-21 20:06N 36°08' W 005°23'1 1.5
2017-Jan-21 19:25N 36°08' W 005°22'0 0.0
2017-Jan-21 18:32N 36°08' W 005°22'0 0.0
2017-Jan-21 17:33N 36°08' W 005°22'0 0.1
2017-Jan-21 16:28N 36°08' W 005°22'0 0.0
2017-Jan-21 15:33N 36°08' W 005°22'0 0.1
2017-Jan-21 14:33N 36°08' W 005°22'0 0.0
2017-Jan-21 13:28N 36°08' W 005°22'0 0.0
2017-Jan-21 12:32N 36°08' W 005°22'0 0.0
2017-Jan-21 11:33N 36°08' W 005°22'4 3.9
2017-Jan-21 10:33N 36°05' W 005°19'5 2.6
2017-Jan-21 08:33N 36°01' W 005°15'1312.5
2017-Jan-21 07:33N 35°57' W 005°29'1311.6
2017-Jan-21 06:25N 35°55' W 005°46'1011.7
2017-Jan-21 05:33N 35°53' W 005°58'  
Track history (hours):
 
Tides and Currents Weather Stations Pressure Air Temp Water Temp Dewpoint Dewpoint Depression Visibility Wind Speed Wind Dir Waves Ship Positions

Wolgastern

Last reported at 2017-Jan-22 08:13 UTC. Time now 2017-Jan-23 02:37 UTC.
Position N 36°10' W 005°25'.

Length 162 m; draft 6.4 m.

Type: Tanker. MMSI: 255804950.

Date/timePositionNaut miles runAvg speedWind from/ knotsBaromVisibWave heightAir tempDewpointWater temp
2017-Jan-22 08:13N 36°10' W 005°25'0 0.0
2017-Jan-22 06:26N 36°10' W 005°25'0 0.0
2017-Jan-21 21:23N 36°10' W 005°25'2 1.7
2017-Jan-21 20:06N 36°08' W 005°23'1 1.5
2017-Jan-21 19:25N 36°08' W 005°22'0 0.0
2017-Jan-21 18:32N 36°08' W 005°22'0 0.0
2017-Jan-21 17:33N 36°08' W 005°22'0 0.1
2017-Jan-21 16:28N 36°08' W 005°22'0 0.0
2017-Jan-21 15:33N 36°08' W 005°22'0 0.1
2017-Jan-21 14:33N 36°08' W 005°22'0 0.0
2017-Jan-21 13:28N 36°08' W 005°22'0 0.0
2017-Jan-21 12:32N 36°08' W 005°22'0 0.0
2017-Jan-21 11:33N 36°08' W 005°22'4 3.9
2017-Jan-21 10:33N 36°05' W 005°19'5 2.6
2017-Jan-21 08:33N 36°01' W 005°15'1312.5
2017-Jan-21 07:33N 35°57' W 005°29'1311.6
2017-Jan-21 06:25N 35°55' W 005°46'1011.7
2017-Jan-21 05:33N 35°53' W 005°58'  

Dump ship's entire track history